createdAt,value
2018-07-31T00:01:43.361Z,23.60
2018-07-31T00:04:16.182Z,23.70
2018-07-31T00:06:50.101Z,23.70
2018-07-31T00:12:03.126Z,23.70
2018-07-31T00:14:46.025Z,23.60
2018-07-31T00:17:29.020Z,23.60
2018-07-31T00:20:09.525Z,23.60
2018-07-31T00:22:42.104Z,23.60
2018-07-31T00:25:21.266Z,23.60
2018-07-31T00:27:55.776Z,23.60
2018-07-31T00:30:35.639Z,23.60
2018-07-31T00:33:15.832Z,23.60
2018-07-31T00:35:52.202Z,23.60
2018-07-31T00:38:22.022Z,23.60
2018-07-31T00:40:53.834Z,23.60
2018-07-31T00:46:12.502Z,23.50
2018-07-31T00:48:51.325Z,23.50
2018-07-31T00:51:30.409Z,23.40
2018-07-31T00:54:09.416Z,23.30
2018-07-31T00:56:48.514Z,23.30
2018-07-31T00:59:27.422Z,23.30
2018-07-31T01:02:01.303Z,23.30
2018-07-31T01:04:35.323Z,23.30
2018-07-31T01:07:07.402Z,23.30
2018-07-31T01:09:48.223Z,23.30
2018-07-31T01:12:20.939Z,23.30
2018-07-31T01:14:53.659Z,23.40
2018-07-31T01:17:25.929Z,23.30
2018-07-31T01:20:07.200Z,23.50
2018-07-31T01:22:46.935Z,23.40
2018-07-31T01:25:25.872Z,23.40
2018-07-31T01:28:04.823Z,23.40
2018-07-31T01:30:45.470Z,23.30
2018-07-31T01:33:24.858Z,23.30
2018-07-31T01:36:04.410Z,23.20
2018-07-31T01:38:40.789Z,23.20
2018-07-31T01:41:12.259Z,23.10
2018-07-31T01:43:53.448Z,23.00
2018-07-31T01:46:34.295Z,22.90
2018-07-31T01:49:13.659Z,22.70
2018-07-31T01:51:54.655Z,22.70
2018-07-31T01:54:34.879Z,22.50
2018-07-31T01:57:15.549Z,22.60
2018-07-31T02:00:02.430Z,22.60
2018-07-31T02:02:41.333Z,22.70
2018-07-31T02:05:18.474Z,22.80
2018-07-31T02:08:01.792Z,22.90
2018-07-31T02:10:52.853Z,22.80
2018-07-31T02:17:17.588Z,22.80
2018-07-31T02:19:53.187Z,22.80
2018-07-31T02:22:40.886Z,22.90
2018-07-31T02:25:24.579Z,22.80
2018-07-31T02:28:12.058Z,22.60
2018-07-31T02:30:51.453Z,22.50
2018-07-31T02:33:26.403Z,22.50
2018-07-31T02:35:58.284Z,22.40
2018-07-31T02:38:31.603Z,22.40
2018-07-31T02:41:02.253Z,22.50
2018-07-31T02:43:47.773Z,22.30
2018-07-31T02:46:29.539Z,22.20
2018-07-31T02:49:08.735Z,22.20
2018-07-31T02:51:47.077Z,22.20
2018-07-31T02:54:19.286Z,22.20
2018-07-31T02:56:55.619Z,22.20
2018-07-31T02:59:28.460Z,22.10
2018-07-31T03:02:01.819Z,22.10
2018-07-31T03:04:31.859Z,22.10
2018-07-31T03:07:05.440Z,22.00
2018-07-31T03:09:40.769Z,22.00
2018-07-31T03:12:12.332Z,22.00
2018-07-31T03:14:47.091Z,21.90
2018-07-31T03:17:27.545Z,22.00
2018-07-31T03:20:02.441Z,22.00
2018-07-31T03:22:34.181Z,22.00
2018-07-31T03:25:08.621Z,22.10
2018-07-31T03:27:40.604Z,22.10
2018-07-31T03:30:21.544Z,21.90
2018-07-31T03:33:00.626Z,21.90
2018-07-31T03:36:04.475Z,21.90
2018-07-31T03:38:43.906Z,21.90
2018-07-31T03:41:15.580Z,21.90
2018-07-31T03:44:00.830Z,21.90
2018-07-31T03:46:40.927Z,22.00
2018-07-31T03:49:19.019Z,22.00
2018-07-31T03:51:50.502Z,22.10
2018-07-31T03:54:29.540Z,22.10
2018-07-31T03:57:04.684Z,22.20
2018-07-31T03:59:43.445Z,22.20
2018-07-31T04:02:15.638Z,22.20
2018-07-31T04:04:47.304Z,22.20
2018-07-31T04:07:25.076Z,22.20
2018-07-31T04:10:04.334Z,22.30
2018-07-31T04:12:44.245Z,22.10
2018-07-31T04:15:23.293Z,22.10
2018-07-31T04:18:02.290Z,22.10
2018-07-31T04:20:33.749Z,22.10
2018-07-31T04:23:05.639Z,21.90
2018-07-31T04:25:39.889Z,22.00
2018-07-31T04:28:19.029Z,22.00
2018-07-31T04:30:58.025Z,22.00
2018-07-31T04:33:51.822Z,22.10
2018-07-31T04:36:32.450Z,22.10
2018-07-31T04:39:13.241Z,22.20
2018-07-31T04:41:52.438Z,22.20
2018-07-31T04:44:31.654Z,22.20
2018-07-31T04:47:11.003Z,22.20
2018-07-31T04:49:51.180Z,22.20
2018-07-31T04:52:32.657Z,22.20
2018-07-31T04:55:11.922Z,22.20
2018-07-31T04:57:50.744Z,22.10
2018-07-31T05:00:29.600Z,22.20
2018-07-31T05:03:13.555Z,22.30
2018-07-31T05:05:45.664Z,22.40
2018-07-31T05:08:24.523Z,22.50
2018-07-31T05:11:04.831Z,22.60
2018-07-31T05:13:44.196Z,22.80
2018-07-31T05:16:25.274Z,23.00
2018-07-31T05:18:57.741Z,23.10
2018-07-31T05:21:38.080Z,23.20
2018-07-31T05:24:17.277Z,23.40
2018-07-31T05:27:00.030Z,23.60
2018-07-31T05:29:39.124Z,23.70
2018-07-31T05:32:18.271Z,24.00
2018-07-31T05:34:57.584Z,24.00
2018-07-31T05:37:51.311Z,24.20
2018-07-31T05:46:02.666Z,24.30
2018-07-31T05:48:34.454Z,24.50
2018-07-31T05:51:10.633Z,24.80
2018-07-31T05:53:52.714Z,25.00
2018-07-31T05:56:43.304Z,25.20
2018-07-31T05:59:21.828Z,25.20
2018-07-31T06:02:00.937Z,25.30
2018-07-31T06:04:52.616Z,25.40
2018-07-31T06:07:24.426Z,25.70
2018-07-31T06:10:10.985Z,25.80
2018-07-31T06:12:50.237Z,25.80
2018-07-31T06:15:21.694Z,26.00
2018-07-31T06:17:55.286Z,26.40
2018-07-31T06:20:34.813Z,26.80
2018-07-31T06:23:14.159Z,27.20
2018-07-31T06:26:21.760Z,27.30
2018-07-31T06:29:09.357Z,27.20
2018-07-31T06:31:48.635Z,27.50
2018-07-31T06:34:21.145Z,27.80
2018-07-31T06:37:01.725Z,27.80
2018-07-31T06:39:33.744Z,27.50
2018-07-31T06:42:15.279Z,27.30
2018-07-31T06:44:50.075Z,27.10
2018-07-31T06:47:21.325Z,26.80
2018-07-31T06:49:53.346Z,26.60
2018-07-31T06:59:28.295Z,26.30
2018-07-31T07:02:08.835Z,26.10
2018-07-31T07:04:48.975Z,26.10
2018-07-31T07:07:19.615Z,26.20
2018-07-31T07:09:53.846Z,26.30
2018-07-31T07:12:25.215Z,26.40
2018-07-31T07:14:58.705Z,26.50
2018-07-31T07:17:32.067Z,26.60
2018-07-31T07:20:04.711Z,26.70
2018-07-31T07:22:44.616Z,26.70
2018-07-31T07:25:18.235Z,26.60
2018-07-31T07:28:02.107Z,26.40
2018-07-31T07:30:37.610Z,26.40
2018-07-31T07:50:07.698Z,26.40
2018-07-31T07:52:48.580Z,26.40
2018-07-31T07:58:11.182Z,26.30
2018-07-31T08:00:53.074Z,26.30
2018-07-31T08:03:36.235Z,26.30
2018-07-31T08:06:23.325Z,26.40
2018-07-31T08:09:16.221Z,26.40
2018-07-31T08:12:06.093Z,26.50
2018-07-31T08:14:52.800Z,26.50
2018-07-31T08:17:37.643Z,26.60
2018-07-31T08:20:20.640Z,26.70
2018-07-31T08:26:36.672Z,26.70
2018-07-31T08:29:30.797Z,26.70
2018-07-31T08:32:09.097Z,26.80
2018-07-31T08:35:15.428Z,26.80
2018-07-31T08:37:57.047Z,26.80
2018-07-31T08:40:39.122Z,26.80
2018-07-31T08:43:42.500Z,26.90
2018-07-31T08:46:28.804Z,26.90
2018-07-31T08:49:13.910Z,27.00
2018-07-31T08:51:57.010Z,27.10
2018-07-31T08:58:14.971Z,27.20
2018-07-31T09:00:57.876Z,27.30
2018-07-31T09:06:23.123Z,27.40
2018-07-31T09:09:06.589Z,27.40
2018-07-31T09:11:49.387Z,27.50
2018-07-31T09:14:30.775Z,27.60
2018-07-31T09:17:15.181Z,27.70
2018-07-31T09:19:59.770Z,27.90
2018-07-31T09:22:45.224Z,28.10
2018-07-31T09:25:38.550Z,28.30
2018-07-31T09:28:25.350Z,28.50
2018-07-31T09:31:10.459Z,28.80
2018-07-31T09:34:17.485Z,29.10
2018-07-31T09:37:00.699Z,29.40
2018-07-31T09:39:42.892Z,29.70
2018-07-31T09:42:27.638Z,30.00
2018-07-31T09:45:31.027Z,30.30
2018-07-31T09:48:12.886Z,30.60
2018-07-31T09:51:06.462Z,31.00
2018-07-31T09:54:06.778Z,31.20
2018-07-31T11:07:39.868Z,33.90
2018-07-31T11:13:43.063Z,34.00
2018-07-31T11:16:29.064Z,33.90
2018-07-31T11:19:26.214Z,33.90
2018-07-31T11:22:25.317Z,33.90
2018-07-31T11:25:22.272Z,33.90
2018-07-31T11:28:07.988Z,33.90
2018-07-31T11:30:53.185Z,33.80
2018-07-31T11:33:38.320Z,33.80
2018-07-31T11:36:29.340Z,33.80
2018-07-31T11:39:17.441Z,33.80
2018-07-31T11:42:22.428Z,33.70
2018-07-31T11:48:36.977Z,33.90
2018-07-31T11:51:31.590Z,33.90
2018-07-31T11:57:23.754Z,34.00
2018-07-31T12:00:08.503Z,34.00
2018-07-31T12:02:57.270Z,34.00
2018-07-31T12:05:45.497Z,33.70
2018-07-31T12:08:33.659Z,33.50
2018-07-31T12:11:30.181Z,33.50
2018-07-31T12:14:27.212Z,33.60
2018-07-31T12:17:19.660Z,33.60
2018-07-31T12:20:10.573Z,33.60
2018-07-31T12:23:03.880Z,33.70
2018-07-31T12:25:48.916Z,33.80
2018-07-31T12:28:39.213Z,33.90
2018-07-31T12:34:27.161Z,33.90
2018-07-31T12:37:18.904Z,33.90
2018-07-31T12:40:01.701Z,33.90
2018-07-31T12:42:49.126Z,33.90
2018-07-31T12:45:35.844Z,33.90
2018-07-31T12:48:20.227Z,33.90
2018-07-31T12:51:06.394Z,33.90
2018-07-31T12:54:07.655Z,33.90
2018-07-31T12:56:55.681Z,34.00
2018-07-31T12:59:37.775Z,34.00
2018-07-31T13:02:23.543Z,33.90
2018-07-31T13:05:14.597Z,33.90
2018-07-31T13:07:59.149Z,33.80
2018-07-31T13:10:45.739Z,33.80
2018-07-31T13:13:40.996Z,33.80
2018-07-31T13:16:32.310Z,33.80
2018-07-31T13:19:19.488Z,33.80
2018-07-31T13:22:06.492Z,33.70
2018-07-31T13:24:58.948Z,33.60
2018-07-31T13:27:49.288Z,33.60
2018-07-31T13:30:35.258Z,33.60
2018-07-31T13:33:25.234Z,33.70
2018-07-31T13:42:51.396Z,33.60
2018-07-31T13:45:38.108Z,33.60
2018-07-31T13:48:34.395Z,33.60
2018-07-31T13:51:29.452Z,33.50
2018-07-31T13:54:11.143Z,33.50
2018-07-31T13:56:54.913Z,33.40
2018-07-31T13:59:49.406Z,33.40
2018-07-31T14:02:32.582Z,33.40
2018-07-31T14:05:22.614Z,33.30
2018-07-31T14:08:06.610Z,33.30
2018-07-31T14:10:51.586Z,33.20
2018-07-31T14:13:44.105Z,33.30
2018-07-31T14:16:35.372Z,33.30
2018-07-31T14:19:23.942Z,33.30
2018-07-31T14:22:12.456Z,33.30
2018-07-31T14:24:56.612Z,33.30
2018-07-31T14:27:51.774Z,33.40
2018-07-31T14:30:54.886Z,33.40
2018-07-31T14:33:43.465Z,33.40
2018-07-31T14:36:28.782Z,33.40
2018-07-31T14:45:12.349Z,33.30
2018-07-31T14:47:56.657Z,33.30
2018-07-31T14:53:53.446Z,33.30
2018-07-31T14:56:25.476Z,33.30
2018-07-31T15:01:42.235Z,33.20
2018-07-31T15:04:40.514Z,33.20
2018-07-31T15:10:05.960Z,33.20
2018-07-31T15:12:38.164Z,33.20
2018-07-31T15:15:09.910Z,33.20
2018-07-31T15:17:49.486Z,33.20
2018-07-31T15:20:32.566Z,33.20
2018-07-31T15:29:30.360Z,33.10
2018-07-31T15:38:02.203Z,33.10
2018-07-31T15:40:50.472Z,33.10
2018-07-31T15:43:48.492Z,33.10
2018-07-31T15:46:32.943Z,33.10
2018-07-31T15:49:24.746Z,33.10
2018-07-31T15:52:18.497Z,33.10
2018-07-31T15:55:43.262Z,33.10
2018-07-31T16:01:21.200Z,33.00
2018-07-31T16:04:26.954Z,33.00
2018-07-31T16:07:29.068Z,33.00
2018-07-31T16:13:59.898Z,33.00
2018-07-31T16:16:44.913Z,32.90
2018-07-31T16:19:28.559Z,32.90
2018-07-31T16:25:42.779Z,32.90
2018-07-31T16:28:34.556Z,32.80
2018-07-31T16:37:23.719Z,32.70
2018-07-31T16:40:09.663Z,32.60
2018-07-31T16:43:10.806Z,32.60
2018-07-31T16:46:26.808Z,32.60
2018-07-31T16:49:18.741Z,32.50
2018-07-31T16:55:43.446Z,32.40
2018-07-31T17:01:31.442Z,32.30
2018-07-31T17:04:12.419Z,32.30
2018-07-31T17:07:06.773Z,32.30
2018-07-31T17:09:53.237Z,32.20
2018-07-31T17:12:35.437Z,32.10
2018-07-31T17:15:30.234Z,32.10
2018-07-31T17:18:12.801Z,32.10
2018-07-31T17:21:03.745Z,32.00
2018-07-31T17:23:51.497Z,31.90
2018-07-31T17:35:49.890Z,31.70
2018-07-31T17:38:34.865Z,31.50
2018-07-31T17:41:21.061Z,31.40
2018-07-31T17:44:06.005Z,31.30
2018-07-31T17:46:58.669Z,31.30
2018-07-31T17:49:42.686Z,31.20
2018-07-31T17:55:29.672Z,31.00
2018-07-31T17:58:22.881Z,30.90
2018-07-31T18:01:09.146Z,30.70
2018-07-31T18:10:07.943Z,30.50
2018-07-31T18:12:56.202Z,30.30
2018-07-31T18:15:51.105Z,30.20
2018-07-31T18:21:36.906Z,30.00
2018-07-31T18:24:26.276Z,29.80
2018-07-31T18:30:03.481Z,29.70
2018-07-31T18:32:50.296Z,29.60
2018-07-31T18:38:37.788Z,29.50
2018-07-31T18:41:27.924Z,29.40
2018-07-31T18:44:16.824Z,29.30
2018-07-31T18:47:02.573Z,29.20
2018-07-31T18:49:54.304Z,29.10
2018-07-31T18:52:47.260Z,29.10
2018-07-31T18:56:00.049Z,29.10
2018-07-31T19:02:22.447Z,29.00
2018-07-31T19:05:35.167Z,28.80
2018-07-31T19:12:38.599Z,28.70
2018-07-31T19:15:14.747Z,28.70
2018-07-31T19:17:45.918Z,28.60
2018-07-31T19:20:16.768Z,28.50
2018-07-31T19:22:47.942Z,28.50
2018-07-31T19:25:20.070Z,28.40
2018-07-31T19:27:50.324Z,28.40
2018-07-31T19:30:21.109Z,28.30
2018-07-31T19:32:52.757Z,28.30
2018-07-31T19:35:25.278Z,28.20
2018-07-31T19:37:56.359Z,28.10
2018-07-31T19:40:28.105Z,28.10
2018-07-31T19:42:59.516Z,28.00
2018-07-31T19:45:30.567Z,27.80
2018-07-31T19:48:01.287Z,27.70
2018-07-31T19:50:32.727Z,27.70
2018-07-31T19:53:02.958Z,27.60
2018-07-31T19:55:33.067Z,27.70
2018-07-31T19:58:05.896Z,27.70
2018-07-31T20:00:36.698Z,27.60
2018-07-31T20:03:10.060Z,27.60
2018-07-31T20:33:31.574Z,27.30
2018-07-31T20:36:08.602Z,27.20
2018-07-31T20:38:45.968Z,27.20
2018-07-31T20:41:26.874Z,27.10
2018-07-31T20:43:59.494Z,27.10
2018-07-31T20:46:30.993Z,27.10
2018-07-31T20:49:03.673Z,27.10
2018-07-31T20:51:44.315Z,27.10
2018-07-31T20:54:14.483Z,27.10
2018-07-31T20:56:47.173Z,27.00
2018-07-31T20:59:19.512Z,27.00
2018-07-31T21:01:58.812Z,26.90
2018-07-31T21:04:30.312Z,26.90
2018-07-31T21:07:02.290Z,26.80
2018-07-31T21:09:33.986Z,26.80
2018-07-31T21:12:04.359Z,26.70
2018-07-31T21:14:36.269Z,26.70
2018-07-31T21:17:08.696Z,26.60
2018-07-31T21:19:39.716Z,26.60
2018-07-31T21:22:10.256Z,26.50
2018-07-31T21:24:42.112Z,26.50
2018-07-31T21:27:12.242Z,26.60
2018-07-31T21:29:44.101Z,26.50
2018-07-31T21:32:23.930Z,26.50
2018-07-31T21:34:55.300Z,26.50
2018-07-31T21:37:27.100Z,26.40
2018-07-31T21:39:57.309Z,26.50
2018-07-31T21:42:28.820Z,26.50
2018-07-31T21:45:04.869Z,26.40
2018-07-31T21:47:36.435Z,26.30
2018-07-31T21:50:08.279Z,26.30
2018-07-31T21:52:39.841Z,26.30
2018-07-31T21:55:11.998Z,26.30
2018-07-31T21:57:50.843Z,26.30
2018-07-31T22:00:34.080Z,26.30
2018-07-31T22:03:13.311Z,26.30
2018-07-31T22:05:45.381Z,26.20
2018-07-31T22:08:24.787Z,26.20
2018-07-31T22:11:04.885Z,26.00
2018-07-31T22:13:35.728Z,26.10
2018-07-31T22:16:15.072Z,26.10
2018-07-31T22:18:47.282Z,26.10
2018-07-31T22:21:27.063Z,26.10
2018-07-31T22:23:58.623Z,26.20
2018-07-31T22:26:38.432Z,26.20
2018-07-31T22:31:52.465Z,26.20
2018-07-31T22:34:23.996Z,26.20
2018-07-31T22:37:00.204Z,26.10
2018-07-31T22:39:31.594Z,26.10
2018-07-31T22:42:01.304Z,25.90
2018-07-31T22:44:37.955Z,25.90
2018-07-31T22:47:16.869Z,25.80
2018-07-31T22:49:46.915Z,25.80
2018-07-31T22:52:22.732Z,25.80
2018-07-31T22:55:01.734Z,25.90
2018-07-31T22:57:40.982Z,25.80
2018-07-31T23:00:20.238Z,25.70
2018-07-31T23:03:00.101Z,25.70
2018-07-31T23:05:31.830Z,25.60
2018-07-31T23:08:11.408Z,25.50
2018-07-31T23:10:50.506Z,25.40
2018-07-31T23:13:30.379Z,25.30
2018-07-31T23:16:09.785Z,25.40
2018-07-31T23:18:49.611Z,25.30
2018-07-31T23:21:21.669Z,25.20
2018-07-31T23:24:00.452Z,25.20
2018-07-31T23:26:31.979Z,25.20
2018-07-31T23:29:12.498Z,25.20
2018-07-31T23:31:52.510Z,25.30
2018-07-31T23:34:23.673Z,25.40
2018-07-31T23:36:53.631Z,25.20
2018-07-31T23:39:25.620Z,25.20
2018-07-31T23:42:00.818Z,25.20
2018-07-31T23:44:37.558Z,25.30
2018-07-31T23:47:09.318Z,25.30
2018-07-31T23:49:48.631Z,25.40
2018-07-31T23:52:28.840Z,25.30
2018-07-31T23:55:08.125Z,25.30
2018-07-31T23:57:47.616Z,25.30
